Disautel, Washington
Current Conditions -  °F | °C
As of 1:53 PM on Wednesday 28 Jan 2015 (Local Time) from KOMK Reporting Station
Overcast Overcast  
Wind Chill:   Ceiling: 600
Heat Index:   Visibility: 10mi
Dew Point:   Wind: 0mph
Humidity: 86%   Direction: NA
Pressure: 30.42"   Gusts: NA
Location:  48.4274°N, 119.524°W
Report Text: KOMK 282153Z AUTO 00000KT 10SM OVC006 02/00 A3042 RMK AO2 SLP316 T00220000
Loading
Personal Weather Stations






























Interactive Weather Map New forecast layout! Learn more

10-Day Weather Forecast

Advertisements
Track Severe Weather on mobile